createdAt,value
2023-04-21T00:01:39.551Z,102496.47
2023-04-21T00:04:07.373Z,102496.44
2023-04-21T00:06:34.258Z,102497.31
2023-04-21T00:09:00.927Z,102496.41
2023-04-21T00:11:27.598Z,102497.31
2023-04-21T00:13:54.272Z,102490.28
2023-04-21T00:16:20.963Z,102493.78
2023-04-21T00:18:48.089Z,102490.28
2023-04-21T00:21:14.769Z,102484.97
2023-04-21T00:23:41.412Z,102485.00
2023-04-21T00:26:08.093Z,102484.13
2023-04-21T00:28:34.742Z,102486.78
2023-04-21T00:31:01.459Z,102479.72
2023-04-21T00:33:28.175Z,102482.34
2023-04-21T00:35:54.869Z,102478.81
2023-04-21T00:38:21.564Z,102475.28
2023-04-21T00:40:48.258Z,102484.03
2023-04-21T00:43:14.963Z,102469.06
2023-04-21T00:45:41.694Z,102473.44
2023-04-21T00:48:08.360Z,102477.84
2023-04-21T00:50:35.169Z,102466.34
2023-04-21T00:53:01.848Z,102467.25
2023-04-21T00:55:29.258Z,102461.09
2023-04-21T00:57:56.707Z,102469.91
2023-04-21T01:00:23.617Z,102464.63
2023-04-21T01:02:50.846Z,102472.53
2023-04-21T01:05:18.319Z,102464.63
2023-04-21T01:07:45.699Z,102470.75
2023-04-21T01:10:12.496Z,102465.41
2023-04-21T01:12:43.686Z,102458.25
2023-04-21T01:15:12.350Z,102454.66
2023-04-21T01:17:39.075Z,102456.38
2023-04-21T01:20:09.378Z,102454.59
2023-04-21T01:22:40.522Z,102451.06
2023-04-21T01:25:08.571Z,102445.84
2023-04-21T01:27:35.365Z,102445.88
2023-04-21T01:30:03.903Z,102449.44
2023-04-21T01:32:31.585Z,102445.13
2023-04-21T01:34:59.480Z,102442.50
2023-04-21T01:37:29.477Z,102442.56
2023-04-21T01:39:58.140Z,102435.53
2023-04-21T01:42:27.736Z,102435.53
2023-04-21T01:44:55.010Z,102442.56
2023-04-21T01:47:23.198Z,102430.25
2023-04-21T01:49:49.959Z,102431.97
2023-04-21T01:52:16.948Z,102431.97
2023-04-21T01:54:43.700Z,102424.00
2023-04-21T01:57:10.575Z,102413.38
2023-04-21T01:59:37.534Z,102421.25
2023-04-21T02:02:04.652Z,102426.50
2023-04-21T02:04:31.661Z,102428.25
2023-04-21T02:06:58.459Z,102422.09
2023-04-21T02:09:25.291Z,102424.69
2023-04-21T02:11:52.096Z,102415.00
2023-04-21T02:14:18.772Z,102417.59
2023-04-21T02:16:45.543Z,102426.34
2023-04-21T02:19:12.326Z,102420.19
2023-04-21T02:21:38.979Z,102417.50
2023-04-21T02:24:06.025Z,102423.66
2023-04-21T02:26:32.733Z,102417.47
2023-04-21T02:28:59.623Z,102417.34
2023-04-21T02:31:26.359Z,102417.22
2023-04-21T02:33:54.625Z,102423.25
2023-04-21T02:36:21.631Z,102417.91
2023-04-21T02:38:48.259Z,102420.41
2023-04-21T02:41:14.945Z,102428.22
2023-04-21T02:43:41.782Z,102420.28
2023-04-21T02:46:09.661Z,102417.72
2023-04-21T02:48:36.907Z,102415.19
2023-04-21T02:51:04.542Z,102422.31
2023-04-21T02:53:31.735Z,102419.72
2023-04-21T02:55:58.434Z,102418.84
2023-04-21T02:58:25.349Z,102417.09
2023-04-21T03:00:52.089Z,102416.22
2023-04-21T03:03:19.061Z,102418.84
2023-04-21T03:05:46.089Z,102415.31
2023-04-21T03:08:12.880Z,102414.44
2023-04-21T03:10:39.797Z,102421.44
2023-04-21T03:13:06.458Z,102422.28
2023-04-21T03:15:33.385Z,102421.34
2023-04-21T03:18:00.087Z,102425.78
2023-04-21T03:20:26.770Z,102420.53
2023-04-21T03:22:54.337Z,102418.75
2023-04-21T03:25:21.095Z,102422.25
2023-04-21T03:27:47.746Z,102419.59
2023-04-21T03:30:14.437Z,102417.84
2023-04-21T03:32:41.247Z,102415.16
2023-04-21T03:35:08.130Z,102413.41
2023-04-21T03:37:34.794Z,102417.00
2023-04-21T03:40:01.479Z,102417.03
2023-04-21T03:42:29.798Z,102418.81
2023-04-21T03:44:56.469Z,102415.19
2023-04-21T03:47:23.110Z,102412.50
2023-04-21T03:49:49.760Z,102411.56
2023-04-21T03:52:16.481Z,102418.47
2023-04-21T03:54:44.513Z,102409.56
2023-04-21T03:57:11.187Z,102415.63
2023-04-21T03:59:37.990Z,102420.84
2023-04-21T04:02:04.728Z,102416.38
2023-04-21T04:04:32.947Z,102415.50
2023-04-21T04:06:59.955Z,102411.13
2023-04-21T04:09:26.726Z,102418.22
2023-04-21T04:11:53.463Z,102406.81
2023-04-21T04:14:20.100Z,102405.94
2023-04-21T04:16:46.744Z,102403.31
2023-04-21T04:19:13.682Z,102405.97
2023-04-21T04:21:40.351Z,102399.09
2023-04-21T04:24:08.383Z,102402.78
2023-04-21T04:26:35.686Z,102399.38
2023-04-21T04:29:02.488Z,102389.81
2023-04-21T04:31:32.661Z,102388.97
2023-04-21T04:33:59.426Z,102390.78
2023-04-21T04:36:26.075Z,102382.91
2023-04-21T04:38:52.773Z,102384.63
2023-04-21T04:41:21.058Z,102385.47
2023-04-21T04:43:47.737Z,102382.84
2023-04-21T04:46:14.509Z,102378.44
2023-04-21T04:48:41.392Z,102384.63
2023-04-21T04:51:08.059Z,102384.72
2023-04-21T04:53:34.710Z,102386.53
2023-04-21T04:56:01.658Z,102387.47
2023-04-21T04:58:28.362Z,102385.78
2023-04-21T05:00:55.111Z,102373.53
2023-04-21T05:03:21.839Z,102381.50
2023-04-21T05:05:48.716Z,102384.22
2023-04-21T05:08:17.800Z,102384.25
2023-04-21T05:10:44.883Z,102380.78
2023-04-21T05:13:11.771Z,102388.72
2023-04-21T05:15:38.439Z,102395.81
2023-04-21T05:18:05.276Z,102388.81
2023-04-21T05:20:32.009Z,102392.34
2023-04-21T05:22:58.644Z,102391.50
2023-04-21T05:25:25.502Z,102389.75
2023-04-21T05:27:52.149Z,102392.44
2023-04-21T05:30:18.795Z,102392.47
2023-04-21T05:32:45.624Z,102388.06
2023-04-21T05:35:12.409Z,102374.00
2023-04-21T05:37:39.042Z,102373.13
2023-04-21T05:40:06.294Z,102376.69
2023-04-21T05:42:33.013Z,102375.81
2023-04-21T05:44:59.757Z,102371.38
2023-04-21T05:47:26.542Z,102369.59
2023-04-21T05:49:54.080Z,102370.50
2023-04-21T05:52:24.226Z,102369.59
2023-04-21T05:54:51.028Z,102365.16
2023-04-21T05:57:17.928Z,102365.19
2023-04-21T05:59:44.785Z,102366.03
2023-04-21T06:02:12.418Z,102364.25
2023-04-21T06:04:39.490Z,102364.22
2023-04-21T06:07:13.055Z,102360.66
2023-04-21T06:09:41.243Z,102355.31
2023-04-21T06:12:07.938Z,102351.72
2023-04-21T06:14:34.624Z,102361.41
2023-04-21T06:17:01.270Z,102356.94
2023-04-21T06:19:27.952Z,102355.09
2023-04-21T06:21:54.845Z,102349.69
2023-04-21T06:24:25.603Z,102351.38
2023-04-21T06:26:53.318Z,102346.84
2023-04-21T06:29:21.028Z,102345.84
2023-04-21T06:31:47.944Z,102346.59
2023-04-21T06:34:14.829Z,102345.59
2023-04-21T06:36:41.589Z,102345.47
2023-04-21T06:39:08.352Z,102342.69
2023-04-21T06:41:35.095Z,102338.13
2023-04-21T06:44:01.924Z,102329.09
2023-04-21T06:46:28.867Z,102328.06
2023-04-21T06:48:55.924Z,102327.00
2023-04-21T06:51:22.770Z,102326.81
2023-04-21T06:53:50.162Z,102320.47
2023-04-21T06:56:16.901Z,102314.94
2023-04-21T06:58:43.694Z,102318.25
2023-04-21T07:01:10.460Z,102318.94
2023-04-21T07:03:37.307Z,102319.63
2023-04-21T07:06:04.389Z,102317.59
2023-04-21T07:08:31.186Z,102315.59
2023-04-21T07:10:57.879Z,102312.69
2023-04-21T07:13:24.716Z,102301.75
2023-04-21T07:15:52.022Z,102295.25
2023-04-21T07:18:18.826Z,102293.19
2023-04-21T07:20:45.763Z,102299.94
2023-04-21T07:23:12.545Z,102294.38
2023-04-21T07:25:39.261Z,102283.47
2023-04-21T07:28:06.600Z,102285.03
2023-04-21T07:30:33.309Z,102275.03
2023-04-21T07:33:00.735Z,102274.81
2023-04-21T07:35:27.561Z,102279.84
2023-04-21T07:37:54.354Z,102279.53
2023-04-21T07:40:21.054Z,102275.69
2023-04-21T07:42:47.887Z,102275.41
2023-04-21T07:45:14.654Z,102279.59
2023-04-21T07:47:41.469Z,102268.56
2023-04-21T07:50:08.963Z,102266.50
2023-04-21T07:52:36.073Z,102262.66
2023-04-21T07:55:02.932Z,102261.44
2023-04-21T07:57:31.924Z,102261.97
2023-04-21T07:59:58.592Z,102250.91
2023-04-21T08:02:25.507Z,102257.56
2023-04-21T08:04:52.445Z,102246.50
2023-04-21T08:07:19.191Z,102243.34
2023-04-21T08:09:45.992Z,102244.72
2023-04-21T08:12:12.689Z,102246.94
2023-04-21T08:14:40.399Z,102237.41
2023-04-21T08:17:07.085Z,102237.50
2023-04-21T08:19:33.802Z,102232.72
2023-04-21T08:22:00.523Z,102236.69
2023-04-21T08:24:27.289Z,102232.03
2023-04-21T08:26:53.970Z,102227.97
2023-04-21T08:29:20.941Z,102225.97
2023-04-21T08:31:47.738Z,102223.47
2023-04-21T08:34:14.722Z,102222.97
2023-04-21T08:36:42.847Z,102218.28
2023-04-21T08:39:09.680Z,102215.00
2023-04-21T08:41:39.816Z,102207.41
2023-04-21T08:44:07.047Z,102209.91
2023-04-21T08:46:35.144Z,102208.81
2023-04-21T08:49:03.368Z,102201.63
2023-04-21T08:51:31.877Z,102199.28
2023-04-21T08:53:58.700Z,102193.09
2023-04-21T08:56:26.363Z,102192.63
2023-04-21T08:58:53.929Z,102198.78
2023-04-21T09:01:20.818Z,102200.38
2023-04-21T09:03:47.684Z,102200.34
2023-04-21T09:06:14.654Z,102198.53
2023-04-21T09:08:53.334Z,102192.00
2023-04-21T09:11:20.025Z,102190.41
2023-04-21T09:13:46.745Z,102189.72
2023-04-21T09:16:20.309Z,102185.56
2023-04-21T09:18:47.532Z,102194.44
2023-04-21T09:21:16.468Z,102184.69
2023-04-21T09:23:52.192Z,102186.66
2023-04-21T09:26:21.410Z,102183.44
2023-04-21T09:28:49.650Z,102181.72
2023-04-21T09:31:21.623Z,102177.31
2023-04-21T09:33:57.705Z,102174.59
2023-04-21T09:36:31.028Z,102176.00
2023-04-21T09:39:29.034Z,102175.75
2023-04-21T09:41:49.881Z,102180.84
2023-04-21T09:44:18.178Z,102173.13
2023-04-21T09:46:48.659Z,102165.78
2023-04-21T09:49:18.443Z,102157.78
2023-04-21T09:56:53.937Z,102146.50
2023-04-21T09:59:27.723Z,102152.69
2023-04-21T10:01:56.708Z,102145.06
2023-04-21T10:04:25.776Z,102144.66
2023-04-21T10:06:53.487Z,102134.19
2023-04-21T10:09:24.197Z,102133.59
2023-04-21T10:11:52.322Z,102140.94
2023-04-21T10:14:19.422Z,102137.09
2023-04-21T10:16:57.122Z,102129.00
2023-04-21T10:19:28.201Z,102132.34
2023-04-21T10:21:57.929Z,102129.25
2023-04-21T10:24:28.459Z,102127.25
2023-04-21T10:26:59.700Z,102121.59
2023-04-21T10:29:43.700Z,102115.91
2023-04-21T10:32:32.665Z,102121.81
2023-04-21T10:34:59.371Z,102111.34
2023-04-21T10:37:26.136Z,102117.03
2023-04-21T10:39:54.843Z,102102.34
2023-04-21T10:42:29.948Z,102104.47
2023-04-21T10:44:56.664Z,102106.06
2023-04-21T10:47:41.330Z,102101.38
2023-04-21T10:50:34.273Z,102095.69
2023-04-21T10:53:09.639Z,102088.13
2023-04-21T10:55:36.579Z,102104.31
2023-04-21T10:58:05.962Z,102093.38
2023-04-21T11:00:33.118Z,102094.97
2023-04-21T11:03:05.980Z,102084.44
2023-04-21T11:05:36.533Z,102090.53
2023-04-21T11:08:08.794Z,102084.28
2023-04-21T11:11:01.785Z,102082.50
2023-04-21T11:13:37.905Z,102083.56
2023-04-21T11:16:08.489Z,102081.13
2023-04-21T11:22:20.869Z,102072.97
2023-04-21T11:24:50.729Z,102072.16
2023-04-21T11:27:18.129Z,102075.34
2023-04-21T11:29:46.576Z,102067.97
2023-04-21T11:32:13.901Z,102060.84
2023-04-21T11:34:41.067Z,102053.31
2023-04-21T11:37:15.346Z,102053.16
2023-04-21T11:39:43.765Z,102046.13
2023-04-21T11:42:11.912Z,102044.84
2023-04-21T11:44:41.986Z,102039.91
2023-04-21T11:47:20.582Z,102034.03
2023-04-21T11:49:58.894Z,102027.41
2023-04-21T11:52:37.573Z,102031.22
2023-04-21T11:55:15.452Z,102027.72
2023-04-21T11:57:42.489Z,102026.81
2023-04-21T12:00:14.631Z,102037.47
2023-04-21T12:02:43.197Z,102027.69
2023-04-21T12:05:12.023Z,102016.41
2023-04-21T12:07:43.748Z,102017.66
2023-04-21T12:10:18.278Z,102022.34
2023-04-21T12:12:46.056Z,102015.69
2023-04-21T12:15:19.183Z,102013.06
2023-04-21T12:17:47.913Z,102009.38
2023-04-21T12:20:25.618Z,102015.00
2023-04-21T12:22:53.528Z,102010.91
2023-04-21T12:25:20.580Z,102011.53
2023-04-21T12:27:58.675Z,102004.97
2023-04-21T12:30:25.430Z,102001.22
2023-04-21T12:32:54.442Z,101998.97
2023-04-21T12:35:22.229Z,101996.09
2023-04-21T12:37:48.945Z,101992.00
2023-04-21T12:40:16.194Z,101996.19
2023-04-21T12:42:42.955Z,101985.25
2023-04-21T12:45:09.982Z,101986.34
2023-04-21T12:47:37.641Z,101977.69
2023-04-21T12:50:05.033Z,101980.00
2023-04-21T12:52:31.763Z,101973.47
2023-04-21T12:54:58.437Z,101969.22
2023-04-21T12:57:25.395Z,101966.72
2023-04-21T12:59:52.111Z,101967.06
2023-04-21T13:02:19.210Z,101963.03
2023-04-21T13:04:46.098Z,101946.72
2023-04-21T13:07:13.001Z,101947.25
2023-04-21T13:09:39.679Z,101959.84
2023-04-21T13:12:06.603Z,101954.72
2023-04-21T13:14:33.350Z,101950.94
2023-04-21T13:17:00.324Z,101951.03
2023-04-21T13:19:28.683Z,101948.06
2023-04-21T13:21:56.474Z,101940.56
2023-04-21T13:24:23.341Z,101944.97
2023-04-21T13:26:50.101Z,101933.91
2023-04-21T13:29:17.058Z,101925.53
2023-04-21T13:31:43.761Z,101927.91
2023-04-21T13:34:10.598Z,101924.16
2023-04-21T13:36:37.351Z,101919.75
2023-04-21T13:39:07.431Z,101920.91
2023-04-21T13:41:35.183Z,101925.91
2023-04-21T13:44:02.001Z,101924.75
2023-04-21T13:46:30.200Z,101910.50
2023-04-21T13:48:57.194Z,101914.34
2023-04-21T13:51:24.008Z,101905.97
2023-04-21T13:53:50.825Z,101902.97
2023-04-21T13:56:17.796Z,101902.31
2023-04-21T13:58:44.587Z,101893.84
2023-04-21T14:01:13.374Z,101895.75
2023-04-21T14:03:41.435Z,101883.22
2023-04-21T14:06:08.475Z,101889.00
2023-04-21T14:08:35.982Z,101889.03
2023-04-21T14:11:03.676Z,101890.84
2023-04-21T14:16:01.061Z,101886.16
2023-04-21T14:18:27.833Z,101879.75
2023-04-21T14:20:54.555Z,101872.09
2023-04-21T14:23:21.218Z,101877.00
2023-04-21T14:25:47.970Z,101870.00
2023-04-21T14:28:15.063Z,101865.16
2023-04-21T14:30:43.242Z,101866.56
2023-04-21T14:33:10.227Z,101855.81
2023-04-21T14:35:37.789Z,101848.09
2023-04-21T14:38:04.772Z,101850.56
2023-04-21T14:40:31.514Z,101848.66
2023-04-21T14:42:58.273Z,101841.38
2023-04-21T14:45:25.131Z,101834.25
2023-04-21T14:47:51.970Z,101835.06
2023-04-21T14:50:19.024Z,101829.00
2023-04-21T14:52:49.387Z,101816.66
2023-04-21T14:55:17.260Z,101822.75
2023-04-21T14:57:44.102Z,101818.31
2023-04-21T15:00:11.595Z,101805.25
2023-04-21T15:02:39.711Z,101805.22
2023-04-21T15:05:08.884Z,101795.38
2023-04-21T15:07:36.218Z,101796.31
2023-04-21T15:10:03.315Z,101798.94
2023-04-21T15:12:30.173Z,101789.50
2023-04-21T15:14:56.936Z,101790.13
2023-04-21T15:17:23.865Z,101780.44
2023-04-21T15:19:51.008Z,101779.47
2023-04-21T15:22:17.777Z,101779.47
2023-04-21T15:24:44.500Z,101771.47
2023-04-21T15:27:11.240Z,101767.69
2023-04-21T15:29:38.164Z,101773.53
2023-04-21T15:32:05.069Z,101763.81
2023-04-21T15:34:31.772Z,101775.72
2023-04-21T15:36:58.498Z,101774.41
2023-04-21T15:39:25.183Z,101766.03
2023-04-21T15:41:53.356Z,101764.53
2023-04-21T15:44:20.143Z,101766.25
2023-04-21T15:46:47.055Z,101761.19
2023-04-21T15:49:13.894Z,101752.94
2023-04-21T15:51:41.108Z,101754.03
2023-04-21T15:54:07.888Z,101749.28
2023-04-21T15:56:34.578Z,101742.06
2023-04-21T15:59:01.394Z,101745.34
2023-04-21T16:01:28.564Z,101741.00
2023-04-21T16:03:55.831Z,101730.75
2023-04-21T16:06:24.317Z,101732.88
2023-04-21T16:08:51.208Z,101730.91
2023-04-21T16:11:18.031Z,101731.56
2023-04-21T16:13:44.818Z,101724.19
2023-04-21T16:16:11.551Z,101727.31
2023-04-21T16:18:38.602Z,101722.47
2023-04-21T16:21:05.542Z,101731.56
2023-04-21T16:23:32.592Z,101720.88
2023-04-21T16:25:59.341Z,101724.44
2023-04-21T16:28:26.215Z,101723.16
2023-04-21T16:30:53.033Z,101725.66
2023-04-21T16:33:19.717Z,101715.69
2023-04-21T16:35:46.662Z,101718.41
2023-04-21T16:38:13.664Z,101720.66
2023-04-21T16:40:40.512Z,101715.78
2023-04-21T16:43:07.262Z,101709.44
2023-04-21T16:45:34.102Z,101709.44
2023-04-21T16:48:00.889Z,101701.63
2023-04-21T16:50:27.659Z,101700.69
2023-04-21T16:52:54.427Z,101705.25
2023-04-21T16:55:21.176Z,101705.38
2023-04-21T16:57:48.209Z,101697.66
2023-04-21T17:00:15.169Z,101707.91
2023-04-21T17:02:41.932Z,101702.28
2023-04-21T17:05:09.271Z,101705.50
2023-04-21T17:07:36.028Z,101694.97
2023-04-21T17:10:02.883Z,101698.50
2023-04-21T17:12:29.603Z,101706.50
2023-04-21T17:14:56.298Z,101700.97
2023-04-21T17:17:23.169Z,101698.91
2023-04-21T17:19:50.145Z,101701.78
2023-04-21T17:22:16.802Z,101695.59
2023-04-21T17:24:52.307Z,101696.75
2023-04-21T17:27:20.938Z,101696.13
2023-04-21T17:29:47.987Z,101702.91
2023-04-21T17:32:14.783Z,101701.50
2023-04-21T17:34:41.856Z,101691.06
2023-04-21T17:37:08.550Z,101687.09
2023-04-21T17:39:35.464Z,101694.69
2023-04-21T17:42:02.787Z,101692.44
2023-04-21T17:44:29.942Z,101690.19
2023-04-21T17:46:58.995Z,101687.19
2023-04-21T17:49:26.426Z,101686.22
2023-04-21T17:51:53.298Z,101693.19
2023-04-21T17:54:20.151Z,101690.91
2023-04-21T17:56:47.071Z,101686.72
2023-04-21T17:59:13.982Z,101687.78
2023-04-21T18:01:40.973Z,101681.78
2023-04-21T18:04:08.136Z,101682.84
2023-04-21T18:06:36.774Z,101683.31
2023-04-21T18:09:05.170Z,101683.78
2023-04-21T18:11:32.052Z,101687.13
2023-04-21T18:13:58.924Z,101686.09
2023-04-21T18:16:26.478Z,101679.59
2023-04-21T18:18:53.513Z,101680.06
2023-04-21T18:21:21.022Z,101683.88
2023-04-21T18:23:47.742Z,101680.59
2023-04-21T18:26:14.407Z,101688.78
2023-04-21T18:28:41.079Z,101681.13
2023-04-21T18:31:07.854Z,101686.88
2023-04-21T18:33:34.753Z,101689.78
2023-04-21T18:36:01.784Z,101686.56
2023-04-21T18:38:28.434Z,101690.63
2023-04-21T18:40:55.670Z,101683.97
2023-04-21T18:43:24.859Z,101684.63
2023-04-21T18:45:51.583Z,101680.69
2023-04-21T18:48:18.360Z,101689.28
2023-04-21T18:50:45.126Z,101679.88
2023-04-21T18:53:14.921Z,101670.44
2023-04-21T18:55:41.560Z,101675.13
2023-04-21T18:58:08.221Z,101680.53
2023-04-21T19:00:37.685Z,101672.72
2023-04-21T19:03:08.538Z,101671.13
2023-04-21T19:05:36.743Z,101670.75
2023-04-21T19:08:03.518Z,101674.63
2023-04-21T19:10:30.254Z,101674.97
2023-04-21T19:12:56.938Z,101672.53
2023-04-21T19:15:23.591Z,101670.44
2023-04-21T19:17:50.316Z,101669.97
2023-04-21T19:20:18.097Z,101663.19
2023-04-21T19:22:44.975Z,101657.63
2023-04-21T19:25:12.132Z,101665.13
2023-04-21T19:27:40.303Z,101669.28
2023-04-21T19:30:07.915Z,101661.81
2023-04-21T19:32:34.665Z,101664.06
2023-04-21T19:35:01.910Z,101661.53
2023-04-21T19:37:28.650Z,101654.81
2023-04-21T19:39:56.062Z,101660.44
2023-04-21T19:42:22.806Z,101656.44
2023-04-21T19:44:49.652Z,101666.56
2023-04-21T19:47:16.617Z,101661.53
2023-04-21T19:49:43.307Z,101651.91
2023-04-21T19:52:10.074Z,101662.69
2023-04-21T19:54:36.961Z,101659.28
2023-04-21T19:57:03.785Z,101654.91
2023-04-21T19:59:31.057Z,101661.91
2023-04-21T20:01:58.804Z,101654.81
2023-04-21T20:04:25.830Z,101650.44
2023-04-21T20:06:52.971Z,101657.84
2023-04-21T20:09:19.795Z,101645.78
2023-04-21T20:11:46.493Z,101651.50
2023-04-21T20:14:13.267Z,101656.34
2023-04-21T20:16:40.049Z,101648.72
2023-04-21T20:19:06.819Z,101648.13
2023-04-21T20:21:33.558Z,101645.66
2023-04-21T20:24:00.894Z,101643.09
2023-04-21T20:26:27.622Z,101643.25
2023-04-21T20:28:54.305Z,101643.34
2023-04-21T20:31:24.025Z,101639.94
2023-04-21T20:33:51.176Z,101643.59
2023-04-21T20:36:18.493Z,101632.22
2023-04-21T20:38:46.486Z,101631.38
2023-04-21T20:41:17.793Z,101633.19
2023-04-21T20:43:45.539Z,101633.53
2023-04-21T20:46:12.680Z,101636.38
2023-04-21T20:48:39.429Z,101632.31
2023-04-21T20:51:06.094Z,101643.22
2023-04-21T20:53:33.038Z,101637.31
2023-04-21T20:55:59.922Z,101633.19
2023-04-21T20:58:26.685Z,101637.00
2023-04-21T21:00:53.632Z,101628.41
2023-04-21T21:03:20.924Z,101624.84
2023-04-21T21:05:48.029Z,101624.81
2023-04-21T21:08:15.167Z,101627.59
2023-04-21T21:10:42.524Z,101623.50
2023-04-21T21:13:09.206Z,101619.19
2023-04-21T21:15:35.915Z,101617.59
2023-04-21T21:18:03.390Z,101614.41
2023-04-21T21:20:30.295Z,101621.66
2023-04-21T21:22:56.968Z,101622.63
2023-04-21T21:25:23.681Z,101614.66
2023-04-21T21:27:50.381Z,101615.34
2023-04-21T21:30:17.157Z,101617.81
2023-04-21T21:32:43.973Z,101617.69
2023-04-21T21:35:12.058Z,101613.31
2023-04-21T21:37:39.828Z,101618.75
2023-04-21T21:40:07.390Z,101607.34
2023-04-21T21:42:34.177Z,101613.53
2023-04-21T21:45:01.402Z,101609.16
2023-04-21T21:47:28.276Z,101610.97
2023-04-21T21:49:56.193Z,101606.72
2023-04-21T21:52:22.941Z,101591.94
2023-04-21T21:54:49.718Z,101600.13
2023-04-21T21:57:16.929Z,101597.47
2023-04-21T21:59:43.818Z,101595.72
2023-04-21T22:02:10.772Z,101595.78
2023-04-21T22:04:37.891Z,101598.56
2023-04-21T22:07:05.230Z,101594.19
2023-04-21T22:09:32.288Z,101591.63
2023-04-21T22:11:59.273Z,101588.28
2023-04-21T22:14:26.060Z,101588.41
2023-04-21T22:16:53.363Z,101591.13
2023-04-21T22:19:20.789Z,101585.97
2023-04-21T22:21:47.949Z,101579.91
2023-04-21T22:24:14.953Z,101581.72
2023-04-21T22:26:42.955Z,101578.19
2023-04-21T22:29:09.723Z,101578.34
2023-04-21T22:31:37.072Z,101574.97
2023-04-21T22:34:04.510Z,101573.38
2023-04-21T22:36:32.691Z,101570.00
2023-04-21T22:38:59.614Z,101565.69
2023-04-21T22:41:27.478Z,101570.97
2023-04-21T22:43:54.472Z,101571.88
2023-04-21T22:46:21.379Z,101564.00
2023-04-21T22:48:48.595Z,101566.75
2023-04-21T22:51:15.515Z,101560.78
2023-04-21T22:53:42.371Z,101561.81
2023-04-21T22:56:09.043Z,101557.50
2023-04-21T22:58:35.940Z,101555.72
2023-04-21T23:01:03.091Z,101552.19
2023-04-21T23:03:31.205Z,101548.81
2023-04-21T23:05:58.574Z,101550.78
2023-04-21T23:08:25.250Z,101552.72
2023-04-21T23:10:52.814Z,101551.91
2023-04-21T23:13:19.602Z,101544.91
2023-04-21T23:15:46.359Z,101545.91
2023-04-21T23:18:13.043Z,101549.63
2023-04-21T23:20:39.826Z,101547.03
2023-04-21T23:23:06.788Z,101541.78
2023-04-21T23:25:33.509Z,101542.66
2023-04-21T23:28:00.494Z,101542.66
2023-04-21T23:30:27.189Z,101540.88
2023-04-21T23:32:53.994Z,101544.38
2023-04-21T23:35:20.774Z,101539.06
2023-04-21T23:37:47.401Z,101541.72
2023-04-21T23:40:14.276Z,101541.78
2023-04-21T23:42:41.150Z,101539.25
2023-04-21T23:45:08.479Z,101531.41
2023-04-21T23:47:35.172Z,101531.44
2023-04-21T23:50:02.127Z,101530.59
2023-04-21T23:52:28.959Z,101532.41
2023-04-21T23:54:55.651Z,101523.63
2023-04-21T23:57:22.340Z,101510.56
2023-04-21T23:59:49.329Z,101516.00
